Time;durP1;ratioP1;P1;durP2;ratioP2;P2;SDS_P1;SDS_P2;PMS_P1;PMS_P2;Temp;Humidity;BMP_temperature;BMP_pressure;BME280_temperature;BME280_humidity;BME280_pressure;Samples;Min_cycle;Max_cycle;Signal;HPM_P1;HPM_P2
2022/05/31 00:02:01;;;;;;;3.45;1.85;;;11.00;89.80;;;;;;4999363;28;20064;-93
2022/05/31 00:04:27;;;;;;;2.63;1.75;;;11.00;89.90;;;;;;4996569;28;20116;-93
2022/05/31 00:06:55;;;;;;;4.88;1.92;;;11.00;90.00;;;;;;4995303;28;20030;-92
2022/05/31 00:09:21;;;;;;;2.97;1.90;;;11.00;90.10;;;;;;5000958;28;20029;-93
2022/05/31 00:11:47;;;;;;;3.03;1.90;;;10.90;90.30;;;;;;4996137;28;20390;-92
2022/05/31 00:14:14;;;;;;;4.68;1.65;;;10.90;90.40;;;;;;4997015;28;20044;-91
2022/05/31 00:16:41;;;;;;;3.67;1.73;;;10.90;90.50;;;;;;4998221;28;20026;-92
2022/05/31 00:19:07;;;;;;;3.95;1.52;;;10.90;90.60;;;;;;4993269;28;20557;-91
2022/05/31 00:21:47;;;;;;;3.10;1.63;;;10.90;90.60;;;;;;4999583;28;20367;-92
2022/05/31 00:24:18;;;;;;;3.72;1.52;;;10.90;90.60;;;;;;5023934;28;20022;-93
2022/05/31 00:26:47;;;;;;;4.53;1.75;;;10.90;90.60;;;;;;4994323;28;20038;-93
2022/05/31 00:29:14;;;;;;;3.22;1.45;;;10.90;90.80;;;;;;4998677;28;20394;-92
2022/05/31 00:31:51;;;;;;;3.78;1.80;;;10.90;90.90;;;;;;5024598;28;20116;-91
2022/05/31 00:34:18;;;;;;;2.13;1.35;;;10.80;91.10;;;;;;4994797;28;20064;-92
2022/05/31 00:36:46;;;;;;;3.83;1.75;;;10.80;91.20;;;;;;4995027;28;20026;-92
2022/05/31 00:39:15;;;;;;;3.70;2.17;;;10.80;91.30;;;;;;4994498;28;20489;-92
2022/05/31 00:41:41;;;;;;;4.38;1.83;;;10.80;91.80;;;;;;4994362;28;20664;-92
2022/05/31 00:44:19;;;;;;;3.63;1.65;;;10.80;91.70;;;;;;4998664;28;20026;-92
2022/05/31 00:46:45;;;;;;;3.67;2.05;;;10.70;91.90;;;;;;4992233;28;20030;-92
2022/05/31 00:49:16;;;;;;;4.70;2.13;;;10.70;92.20;;;;;;4993125;28;20022;-92
2022/05/31 00:51:46;;;;;;;3.95;1.83;;;10.70;92.40;;;;;;4994277;28;20180;-93
2022/05/31 00:54:19;;;;;;;3.85;2.05;;;10.60;92.50;;;;;;5012973;28;20133;-93
2022/05/31 00:56:53;;;;;;;4.80;1.80;;;10.60;93.20;;;;;;4991155;28;20118;-93
2022/05/31 00:59:32;;;;;;;3.47;2.00;;;10.50;93.10;;;;;;4994035;28;20037;-93
2022/05/31 01:02:08;;;;;;;6.75;2.38;;;10.50;93.30;;;;;;5019942;28;20036;-93
2022/05/31 01:04:43;;;;;;;4.35;2.45;;;10.50;93.60;;;;;;5016728;28;20032;-94
2022/05/31 01:07:11;;;;;;;3.80;2.28;;;10.40;93.90;;;;;;4995791;28;20022;-93
2022/05/31 01:09:40;;;;;;;6.35;2.55;;;10.40;94.30;;;;;;4994473;28;20084;-94
2022/05/31 01:12:06;;;;;;;4.78;2.78;;;10.40;94.50;;;;;;4995233;28;20029;-93
2022/05/31 01:14:40;;;;;;;4.95;2.67;;;10.30;94.90;;;;;;4995792;28;20037;-93
2022/05/31 01:17:09;;;;;;;6.43;3.10;;;10.30;95.00;;;;;;5025939;28;20112;-93
2022/05/31 01:19:56;;;;;;;3.97;2.33;;;10.30;95.20;;;;;;5023683;28;20056;-93
2022/05/31 01:22:52;;;;;;;4.07;2.65;;;10.20;95.40;;;;;;5000212;28;20034;-94
2022/05/31 01:25:56;;;;;;;9.55;2.50;;;10.20;95.80;;;;;;4994355;28;20604;-91
2022/05/31 01:28:43;;;;;;;4.65;2.35;;;10.20;96.20;;;;;;5012482;28;20116;-92
2022/05/31 01:31:31;;;;;;;4.03;2.55;;;10.10;96.90;;;;;;4999059;28;20029;-91
2022/05/31 01:34:28;;;;;;;5.13;2.60;;;10.10;97.20;;;;;;5021335;28;20034;-94
2022/05/31 01:36:56;;;;;;;8.20;2.85;;;10.00;97.30;;;;;;5007525;28;20061;-94
2022/05/31 01:39:55;;;;;;;4.07;2.88;;;10.00;97.50;;;;;;4999664;28;20022;-94
2022/05/31 01:42:33;;;;;;;4.32;2.53;;;9.90;97.80;;;;;;5024844;28;20037;-93
2022/05/31 01:45:08;;;;;;;4.05;2.67;;;9.90;98.50;;;;;;4994172;28;20030;-93
2022/05/31 01:47:35;;;;;;;4.82;2.67;;;9.90;98.80;;;;;;4996703;28;20048;-92
2022/05/31 01:50:03;;;;;;;3.10;2.30;;;9.80;99.30;;;;;;5006585;28;20034;-93
2022/05/31 01:52:31;;;;;;;5.72;2.70;;;9.80;99.30;;;;;;5004353;28;20033;-93
2022/05/31 01:54:56;;;;;;;5.43;2.13;;;9.80;99.20;;;;;;4998006;28;20120;-93
2022/05/31 01:57:24;;;;;;;7.97;3.35;;;9.90;99.40;;;;;;4988382;28;20089;-92
2022/05/31 01:59:57;;;;;;;4.60;2.60;;;9.80;99.40;;;;;;4988585;28;20049;-92
2022/05/31 02:02:25;;;;;;;6.05;2.78;;;9.80;99.70;;;;;;4996446;28;20034;-93
2022/05/31 02:04:53;;;;;;;5.40;3.22;;;9.80;99.80;;;;;;4990682;28;20076;-92
2022/05/31 02:07:22;;;;;;;3.92;2.83;;;9.80;99.90;;;;;;4990052;28;20025;-93
2022/05/31 02:09:50;;;;;;;4.68;2.60;;;9.80;99.90;;;;;;4993088;28;20530;-93
2022/05/31 02:12:17;;;;;;;5.85;2.47;;;9.80;99.90;;;;;;4995199;28;20478;-93
2022/05/31 02:14:43;;;;;;;4.28;2.47;;;9.80;99.90;;;;;;4989919;28;20038;-94
2022/05/31 02:17:10;;;;;;;5.38;2.75;;;9.70;99.90;;;;;;4995696;28;20037;-93
2022/05/31 02:19:36;;;;;;;4.63;2.60;;;9.70;99.90;;;;;;4993383;28;20021;-92
2022/05/31 02:22:06;;;;;;;4.35;2.30;;;9.70;99.90;;;;;;4986333;28;20121;-92
2022/05/31 02:24:32;;;;;;;3.40;2.55;;;9.60;99.90;;;;;;4996641;28;20436;-92
2022/05/31 02:26:58;;;;;;;5.20;2.30;;;9.50;99.90;;;;;;4991882;28;20031;-92
2022/05/31 02:29:29;;;;;;;3.13;2.30;;;9.40;99.90;;;;;;4995583;28;20490;-94
2022/05/31 02:32:00;;;;;;;3.92;2.28;;;9.40;99.90;;;;;;4991735;28;20033;-94
2022/05/31 02:34:31;;;;;;;2.22;1.55;;;9.40;99.90;;;;;;5015006;28;20631;-94
2022/05/31 02:36:57;;;;;;;3.83;2.08;;;9.40;99.90;;;;;;4993124;28;20038;-93
2022/05/31 02:39:23;;;;;;;4.38;2.20;;;9.40;99.90;;;;;;4995112;28;20079;-94
2022/05/31 02:41:50;;;;;;;4.35;1.90;;;9.40;99.90;;;;;;4992466;28;20034;-92
2022/05/31 02:44:17;;;;;;;3.85;2.17;;;9.30;99.90;;;;;;4992906;28;20505;-92
2022/05/31 02:46:43;;;;;;;3.30;2.15;;;9.30;99.90;;;;;;4991580;28;20132;-92
2022/05/31 02:49:09;;;;;;;2.95;1.95;;;9.20;99.90;;;;;;4994299;28;20145;-92
2022/05/31 02:51:41;;;;;;;2.35;1.58;;;9.20;99.90;;;;;;4993695;28;20026;-92
2022/05/31 02:54:08;;;;;;;4.93;2.13;;;9.20;99.90;;;;;;4987684;28;20100;-90
2022/05/31 02:56:34;;;;;;;3.50;1.80;;;9.20;99.90;;;;;;4992139;28;20486;-93
2022/05/31 02:58:59;;;;;;;4.28;1.98;;;9.20;99.90;;;;;;4986569;28;20031;-92
2022/05/31 03:01:37;;;;;;;2.58;1.67;;;9.20;99.90;;;;;;4992299;28;20499;-91
2022/05/31 03:04:05;;;;;;;5.03;1.80;;;9.10;99.90;;;;;;4996979;28;20026;-92
2022/05/31 03:06:31;;;;;;;2.80;1.65;;;9.20;99.90;;;;;;5007231;28;20022;-91
2022/05/31 03:08:58;;;;;;;2.75;1.63;;;9.10;99.90;;;;;;4993997;28;20112;-92
2022/05/31 03:11:32;;;;;;;5.53;2.35;;;9.20;99.90;;;;;;4994270;28;20389;-90
2022/05/31 03:14:09;;;;;;;4.88;2.40;;;9.20;99.90;;;;;;4991886;28;20037;-90
2022/05/31 03:16:39;;;;;;;3.97;2.30;;;9.20;99.90;;;;;;4987287;28;20054;-91
2022/05/31 03:19:08;;;;;;;5.50;2.83;;;9.10;99.90;;;;;;5011626;28;20026;-90
2022/05/31 03:21:45;;;;;;;5.43;2.45;;;9.10;99.90;;;;;;4986345;28;20481;-90
2022/05/31 03:24:19;;;;;;;4.45;2.45;;;9.10;99.90;;;;;;4993221;28;20025;-89
2022/05/31 03:26:47;;;;;;;5.03;2.53;;;9.00;99.90;;;;;;5013567;28;20026;-90
2022/05/31 03:29:13;;;;;;;5.35;3.15;;;9.00;99.90;;;;;;4997366;28;20546;-90
2022/05/31 03:31:39;;;;;;;5.03;3.58;;;9.10;99.90;;;;;;5014438;28;20112;-91
2022/05/31 03:34:05;;;;;;;7.28;3.78;;;9.10;99.90;;;;;;5016771;28;20033;-89
2022/05/31 03:36:31;;;;;;;7.80;3.35;;;9.00;99.90;;;;;;4994362;28;20034;-90
2022/05/31 03:38:57;;;;;;;7.07;4.22;;;9.00;99.90;;;;;;4993948;28;20401;-90
2022/05/31 03:41:22;;;;;;;6.22;3.40;;;9.00;99.90;;;;;;4994985;28;20645;-90
2022/05/31 03:43:48;;;;;;;3.67;3.10;;;9.00;99.90;;;;;;4991703;28;20044;-89
2022/05/31 03:46:15;;;;;;;5.82;3.15;;;9.00;99.90;;;;;;5023346;28;20114;-89
2022/05/31 03:48:41;;;;;;;3.80;3.03;;;8.90;99.90;;;;;;5021466;28;20058;-91
2022/05/31 03:51:10;;;;;;;5.45;3.13;;;8.90;99.90;;;;;;4991684;28;20017;-91
2022/05/31 03:53:37;;;;;;;7.82;3.30;;;8.90;99.90;;;;;;4991005;28;20542;-91
2022/05/31 03:56:10;;;;;;;6.57;2.58;;;8.80;99.90;;;;;;4990572;28;20030;-90
2022/05/31 03:58:36;;;;;;;6.00;2.90;;;8.80;99.90;;;;;;4996963;28;20105;-91
2022/05/31 04:01:02;;;;;;;7.47;3.30;;;8.70;99.90;;;;;;4994400;28;20033;-91
2022/05/31 04:03:28;;;;;;;5.47;2.88;;;8.80;99.90;;;;;;5000223;28;20021;-91
2022/05/31 04:05:54;;;;;;;5.78;2.75;;;8.80;99.90;;;;;;4993831;28;20025;-90
2022/05/31 04:08:20;;;;;;;5.70;2.83;;;8.80;99.90;;;;;;4994994;28;20026;-90
2022/05/31 04:10:47;;;;;;;5.88;3.20;;;8.70;99.90;;;;;;4997152;28;20489;-90
2022/05/31 04:13:14;;;;;;;5.10;2.60;;;8.70;99.90;;;;;;4991523;28;20048;-91
2022/05/31 04:15:41;;;;;;;3.05;2.05;;;8.70;99.90;;;;;;4994352;28;20084;-90
2022/05/31 04:18:08;;;;;;;4.65;2.70;;;8.70;99.90;;;;;;4994555;28;20034;-89
2022/05/31 04:20:37;;;;;;;4.47;2.33;;;8.80;99.90;;;;;;4996470;28;20105;-90
2022/05/31 04:25:48;;;;;;;3.83;2.35;;;8.90;99.90;;;;;;5013174;28;21096;-90
2022/05/31 04:28:17;;;;;;;6.20;2.78;;;9.00;99.90;;;;;;4995672;28;20032;-90
2022/05/31 04:30:44;;;;;;;4.65;2.80;;;9.40;99.90;;;;;;4991787;28;20030;-90
2022/05/31 04:33:10;;;;;;;4.25;2.28;;;9.80;99.90;;;;;;4994579;28;20125;-92
2022/05/31 04:35:36;;;;;;;3.97;2.47;;;9.90;99.90;;;;;;4992922;28;20025;-91
2022/05/31 04:38:09;;;;;;;4.85;2.53;;;10.00;99.90;;;;;;4986927;28;20041;-90
2022/05/31 04:40:41;;;;;;;4.68;2.30;;;10.10;99.90;;;;;;5019519;28;20087;-90
2022/05/31 04:43:07;;;;;;;4.30;2.50;;;10.20;99.90;;;;;;5009326;28;20087;-89
2022/05/31 04:45:33;;;;;;;4.53;2.92;;;10.20;99.90;;;;;;4991120;28;20030;-91
2022/05/31 04:47:59;;;;;;;6.57;3.03;;;10.20;99.90;;;;;;5011966;28;20030;-90
2022/05/31 04:50:24;;;;;;;6.47;3.28;;;10.30;99.90;;;;;;4994584;28;20485;-90
2022/05/31 04:52:50;;;;;;;7.07;3.83;;;10.50;99.90;;;;;;4990722;28;20022;-91
2022/05/31 04:55:16;;;;;;;3.85;3.03;;;10.60;99.90;;;;;;4992074;28;20048;-88
2022/05/31 04:57:41;;;;;;;5.82;3.53;;;10.80;99.90;;;;;;4995047;28;20030;-91
2022/05/31 05:00:08;;;;;;;5.97;3.15;;;11.00;99.90;;;;;;5006865;28;20495;-89
2022/05/31 05:02:33;;;;;;;4.85;2.67;;;11.00;99.90;;;;;;5007459;28;20018;-88
2022/05/31 05:04:59;;;;;;;3.33;2.28;;;11.20;99.90;;;;;;5015990;28;20422;-87
2022/05/31 05:07:28;;;;;;;5.55;2.92;;;11.40;99.90;;;;;;5010758;28;20018;-89
2022/05/31 05:09:53;;;;;;;3.50;2.53;;;11.60;99.40;;;;;;4995697;28;20026;-93
2022/05/31 05:12:19;;;;;;;5.28;2.97;;;11.70;98.90;;;;;;4999384;28;20029;-91
2022/05/31 05:14:47;;;;;;;5.05;2.58;;;11.70;98.60;;;;;;4995724;28;20128;-93
2022/05/31 05:17:16;;;;;;;6.80;2.55;;;11.70;98.30;;;;;;4996860;28;20076;-95
2022/05/31 05:19:44;;;;;;;4.70;2.28;;;11.70;98.20;;;;;;4999686;28;20022;-93
2022/05/31 05:22:10;;;;;;;3.65;2.45;;;11.60;98.10;;;;;;4999561;28;20026;-89
2022/05/31 05:24:36;;;;;;;3.78;2.20;;;11.70;98.10;;;;;;5007257;28;20111;-78
2022/05/31 05:27:01;;;;;;;5.38;2.25;;;11.90;98.20;;;;;;5009978;28;20537;-76
2022/05/31 05:32:11;;;;;;;;;;;12.50;97.80;;;;;;5011380;28;20393;-76
2022/05/31 05:34:37;;;;;;;4.10;2.25;;;12.80;96.60;;;;;;5015068;28;19909;-95
2022/05/31 05:37:03;;;;;;;3.97;2.70;;;13.00;96.10;;;;;;4998871;28;20037;-92
2022/05/31 05:39:32;;;;;;;5.40;2.88;;;13.00;95.60;;;;;;4993543;28;20026;-92
2022/05/31 05:41:57;;;;;;;5.32;2.83;;;12.90;95.40;;;;;;4997581;28;20484;-92
2022/05/31 05:44:27;;;;;;;5.00;2.85;;;12.90;95.30;;;;;;4992187;28;20056;-93
2022/05/31 05:46:53;;;;;;;4.93;2.88;;;12.80;95.50;;;;;;5028568;23;20042;-91
2022/05/31 05:49:38;;;;;;;5.97;2.95;;;12.80;95.40;;;;;;4999638;28;20030;-94
2022/05/31 05:52:07;;;;;;;5.40;3.10;;;12.80;95.40;;;;;;5013099;28;20052;-93
2022/05/31 05:54:34;;;;;;;5.57;3.25;;;12.70;95.50;;;;;;5009411;28;20096;-92
2022/05/31 05:57:03;;;;;;;6.45;3.88;;;12.70;95.50;;;;;;4999271;28;20029;-92
2022/05/31 05:59:31;;;;;;;9.50;4.10;;;12.80;95.50;;;;;;5015844;28;20420;-94
2022/05/31 06:02:14;;;;;;;6.25;4.10;;;12.80;95.40;;;;;;4995688;28;20116;-92
2022/05/31 06:06:12;;;;;;;;;;;;;;;;;;;;;
2022/05/31 06:08:48;;;;;;;7.50;3.80;;;12.90;95.40;;;;;;4965422;28;20049;-94
2022/05/31 06:11:47;;;;;;;5.80;4.00;;;12.90;95.60;;;;;;5012982;28;20129;-94
2022/05/31 06:14:19;;;;;;;8.20;4.28;;;12.90;95.60;;;;;;4993393;28;20041;-89
2022/05/31 06:17:08;;;;;;;6.18;3.83;;;12.90;95.50;;;;;;4997806;28;20026;-91
2022/05/31 06:19:36;;;;;;;6.18;3.45;;;12.80;95.40;;;;;;4996819;28;20026;-92
2022/05/31 06:22:04;;;;;;;5.85;3.53;;;12.90;95.40;;;;;;4995714;28;20036;-93
2022/05/31 06:24:32;;;;;;;3.30;2.80;;;13.00;95.40;;;;;;5007158;28;20547;-90
2022/05/31 06:26:58;;;;;;;5.28;2.92;;;13.00;95.30;;;;;;5015950;23;20010;-91
2022/05/31 06:29:34;;;;;;;6.75;3.22;;;13.30;95.00;;;;;;5018293;28;20040;-94
2022/05/31 06:32:07;;;;;;;5.93;2.80;;;13.30;94.80;;;;;;5018013;28;20091;-93
2022/05/31 06:34:51;;;;;;;5.18;3.08;;;13.20;94.50;;;;;;5027753;28;20022;-92
2022/05/31 06:37:20;;;;;;;4.93;2.78;;;13.20;94.60;;;;;;4999400;28;20030;-89
2022/05/31 06:39:46;;;;;;;5.22;2.78;;;13.30;94.50;;;;;;4997833;28;20026;-89
2022/05/31 06:42:20;;;;;;;3.92;2.55;;;13.40;94.50;;;;;;4993622;28;20121;-93
2022/05/31 06:44:46;;;;;;;5.00;2.35;;;13.50;94.40;;;;;;5009855;28;20022;-90
2022/05/31 06:47:12;;;;;;;5.20;2.60;;;13.70;94.20;;;;;;5009950;28;20125;-86
2022/05/31 06:49:41;;;;;;;6.53;3.03;;;13.90;93.90;;;;;;4993071;28;20041;-87
2022/05/31 06:57:59;;;;;;;3.88;2.78;;;14.20;92.90;;;;;;4948556;28;20041;-87
2022/05/31 07:00:24;;;;;;;3.85;2.20;;;14.30;92.80;;;;;;4982307;28;20034;-86
2022/05/31 07:02:51;;;;;;;10.70;2.63;;;14.20;92.70;;;;;;5006732;28;20485;-87
2022/05/31 07:05:18;;;;;;;3.55;2.42;;;14.30;92.70;;;;;;5005623;28;20021;-86
2022/05/31 07:07:44;;;;;;;4.05;2.47;;;14.40;92.70;;;;;;4992211;28;20215;-86
2022/05/31 07:10:14;;;;;;;5.50;2.88;;;14.40;92.60;;;;;;4990023;28;20054;-90
2022/05/31 07:12:41;;;;;;;11.88;3.00;;;14.40;92.70;;;;;;5006586;28;20034;-89
2022/05/31 07:15:08;;;;;;;6.28;3.25;;;14.40;92.70;;;;;;5009815;28;20018;-87
2022/05/31 07:17:33;;;;;;;4.85;2.70;;;14.40;92.90;;;;;;5011355;28;20038;-85
2022/05/31 07:19:59;;;;;;;6.45;3.17;;;14.40;93.10;;;;;;5018406;28;20056;-86
2022/05/31 07:22:25;;;;;;;4.80;2.83;;;14.40;93.30;;;;;;5001800;28;20086;-85
2022/05/31 07:24:53;;;;;;;5.80;2.95;;;14.40;93.40;;;;;;5005522;28;20038;-83
2022/05/31 07:27:18;;;;;;;4.43;2.42;;;14.50;93.70;;;;;;5012593;28;20030;-83
2022/05/31 07:29:44;;;;;;;4.25;2.83;;;14.60;93.80;;;;;;5002350;28;20130;-82
2022/05/31 07:32:10;;;;;;;6.28;2.75;;;14.60;93.60;;;;;;5007639;28;20030;-83
2022/05/31 07:34:35;;;;;;;7.72;2.67;;;14.70;93.60;;;;;;5004948;28;20034;-83
2022/05/31 07:37:01;;;;;;;3.50;2.00;;;14.70;93.40;;;;;;5011693;28;20430;-82
2022/05/31 07:39:27;;;;;;;5.18;2.10;;;14.90;93.30;;;;;;5012038;28;20025;-87
2022/05/31 07:41:54;;;;;;;6.03;2.53;;;15.00;93.00;;;;;;5019988;28;20030;-86
2022/05/31 07:44:21;;;;;;;5.20;2.65;;;15.10;92.60;;;;;;5000711;28;20030;-85
2022/05/31 07:46:47;;;;;;;5.13;2.10;;;15.20;92.60;;;;;;4998810;28;20030;-83
2022/05/31 07:49:14;;;;;;;3.85;2.33;;;15.40;92.30;;;;;;5003540;28;20053;-85
2022/05/31 07:51:40;;;;;;;5.05;2.83;;;15.60;92.00;;;;;;4987638;28;20129;-84
2022/05/31 07:54:05;;;;;;;5.75;2.83;;;15.70;91.70;;;;;;5009522;28;20041;-84
2022/05/31 07:56:31;;;;;;;3.75;1.95;;;15.90;91.60;;;;;;4992635;28;20084;-85
2022/05/31 07:58:57;;;;;;;6.22;2.10;;;16.00;91.20;;;;;;5006003;28;20065;-86
2022/05/31 08:01:25;;;;;;;3.47;1.83;;;16.00;90.80;;;;;;5002805;28;20022;-85
2022/05/31 08:03:52;;;;;;;2.85;1.65;;;16.00;90.70;;;;;;4992710;28;20425;-86
2022/05/31 08:06:27;;;;;;;3.72;1.75;;;16.00;90.70;;;;;;4994191;28;20022;-84
2022/05/31 08:08:53;;;;;;;2.13;1.73;;;16.00;90.80;;;;;;5009010;28;20041;-86
2022/05/31 08:11:28;;;;;;;3.33;1.85;;;16.10;90.80;;;;;;5009218;28;20022;-85
2022/05/31 08:13:54;;;;;;;3.78;2.08;;;16.20;90.70;;;;;;4988976;28;20176;-85
2022/05/31 08:16:22;;;;;;;3.72;1.80;;;16.30;90.70;;;;;;4993948;28;20033;-84
2022/05/31 08:18:49;;;;;;;3.35;2.28;;;16.40;90.70;;;;;;4994802;28;20116;-84
2022/05/31 08:21:35;;;;;;;4.07;1.98;;;16.40;90.60;;;;;;5009525;28;20025;-87
2022/05/31 08:24:06;;;;;;;3.35;1.70;;;16.50;90.10;;;;;;5002371;28;20417;-85
2022/05/31 08:26:32;;;;;;;4.03;2.10;;;16.50;89.60;;;;;;5009723;28;20018;-85
2022/05/31 08:28:57;;;;;;;3.55;2.22;;;16.50;89.00;;;;;;5006642;28;20032;-85
2022/05/31 08:31:26;;;;;;;5.57;2.42;;;16.50;88.60;;;;;;5005948;28;20122;-83
2022/05/31 08:33:52;;;;;;;4.25;2.50;;;16.50;89.10;;;;;;5007083;28;20026;-84
2022/05/31 08:36:19;;;;;;;5.10;2.47;;;16.60;89.60;;;;;;4991386;28;20371;-85
2022/05/31 08:38:44;;;;;;;5.30;2.22;;;16.70;89.50;;;;;;4993278;28;20059;-85
2022/05/31 08:41:33;;;;;;;3.33;2.28;;;16.70;89.40;;;;;;4998139;28;20022;-85
2022/05/31 08:44:18;;;;;;;3.67;2.00;;;16.90;89.40;;;;;;5005264;28;20030;-89
2022/05/31 08:46:59;;;;;;;6.10;2.10;;;17.00;88.80;;;;;;5004758;28;20026;-83
2022/05/31 08:52:53;;;;;;;2.95;1.95;;;17.20;88.70;;;;;;5007020;28;20053;-84
2022/05/31 08:58:21;;;;;;;9.15;2.10;;;17.40;88.00;;;;;;4986730;28;20050;-85
2022/05/31 09:00:51;;;;;;;4.43;2.10;;;17.50;88.00;;;;;;4989023;28;20033;-84
2022/05/31 09:03:34;;;;;;;2.80;1.73;;;17.60;87.50;;;;;;5006010;28;20030;-85
2022/05/31 09:06:12;;;;;;;4.93;2.00;;;17.60;86.70;;;;;;4987754;28;20021;-84
2022/05/31 09:09:15;;;;;;;3.15;1.75;;;17.70;87.20;;;;;;5005348;28;20033;-84
2022/05/31 09:11:50;;;;;;;2.03;1.42;;;17.90;87.20;;;;;;4999279;28;20489;-84
2022/05/31 09:14:23;;;;;;;1.92;1.27;;;18.10;86.50;;;;;;5001986;28;20045;-84
2022/05/31 09:17:00;;;;;;;3.75;1.85;;;18.20;86.80;;;;;;5005527;28;20576;-85
2022/05/31 09:20:06;;;;;;;1.98;1.40;;;18.40;86.00;;;;;;5007062;28;20030;-84
2022/05/31 09:22:33;;;;;;;2.35;1.50;;;18.60;85.00;;;;;;4972875;28;20046;-83
2022/05/31 09:24:58;;;;;;;3.40;1.48;;;18.80;84.60;;;;;;5004226;28;20110;-83
2022/05/31 09:27:44;;;;;;;4.90;1.70;;;19.00;84.50;;;;;;5005613;28;20089;-86
2022/05/31 09:30:51;;;;;;;2.97;1.30;;;19.30;83.70;;;;;;5007955;28;20036;-85
2022/05/31 09:33:17;;;;;;;4.22;1.40;;;19.60;82.10;;;;;;4980396;28;20022;-85
2022/05/31 09:35:55;;;;;;;3.22;1.35;;;19.80;79.90;;;;;;4989793;28;20042;-86
2022/05/31 09:39:08;;;;;;;3.35;1.35;;;20.00;77.90;;;;;;5006777;28;20038;-87
2022/05/31 09:41:43;;;;;;;4.78;1.73;;;20.30;77.40;;;;;;4998834;28;20108;-88
2022/05/31 09:44:33;;;;;;;2.65;1.25;;;20.40;74.90;;;;;;4995574;28;20106;-90
2022/05/31 09:47:17;;;;;;;2.50;1.75;;;20.60;74.30;;;;;;5007476;28;20030;-86
2022/05/31 09:49:45;;;;;;;;;;;20.70;72.80;;;;;;5008639;28;20033;-88
2022/05/31 09:52:35;;;;;;;3.75;1.35;;;20.80;72.60;;;;;;5016079;28;19913;-91
2022/05/31 09:58:12;;;;;;;2.03;1.50;;;20.80;71.90;;;;;;5012301;28;20032;-92
2022/05/31 10:01:01;;;;;;;2.85;1.40;;;20.70;71.50;;;;;;4994920;28;20096;-88
2022/05/31 10:03:46;;;;;;;4.18;2.10;;;20.70;71.80;;;;;;5011477;28;22842;-90
2022/05/31 10:06:18;;;;;;;6.03;2.10;;;20.70;71.10;;;;;;4995362;28;20049;-92
2022/05/31 10:08:49;;;;;;;5.70;2.75;;;20.60;71.30;;;;;;4999462;28;20025;-92
2022/05/31 10:11:34;;;;;;;3.65;1.50;;;20.50;71.20;;;;;;4999577;28;20402;-96
2022/05/31 10:14:22;;;;;;;2.72;1.85;;;20.50;71.00;;;;;;5015184;28;20057;-94
2022/05/31 10:16:51;;;;;;;4.22;2.00;;;20.40;70.90;;;;;;5001143;28;20026;-90
2022/05/31 10:19:22;;;;;;;8.15;2.80;;;20.40;70.00;;;;;;5012003;28;20058;-90
2022/05/31 10:29:12;;;;;;;2.95;1.40;;;20.50;69.30;;;;;;4865149;29;20066;-92
2022/05/31 10:32:17;;;;;;;;;;;;;;;;;;;;;
2022/05/31 10:38:39;;;;;;;2.47;1.30;;;20.60;68.20;;;;;;4991290;28;20080;-94
2022/05/31 10:41:10;;;;;;;3.40;1.35;;;20.60;67.00;;;;;;4967721;28;20033;-91
2022/05/31 10:43:46;;;;;;;3.60;1.50;;;20.60;66.80;;;;;;5010871;28;20014;-91
2022/05/31 10:46:35;;;;;;;1.98;1.40;;;20.80;65.90;;;;;;4995004;28;20021;-92
2022/05/31 10:49:30;;;;;;;1.63;1.30;;;21.00;64.20;;;;;;5007574;28;20038;-87
2022/05/31 10:51:59;;;;;;;2.00;1.30;;;21.20;63.40;;;;;;4990701;28;20038;-87
2022/05/31 10:54:53;;;;;;;3.60;1.50;;;21.40;64.00;;;;;;4995917;28;20014;-87
2022/05/31 10:57:51;;;;;;;3.90;1.40;;;21.50;63.10;;;;;;5005784;28;20604;-86
2022/05/31 11:00:36;;;;;;;4.15;1.50;;;21.50;62.20;;;;;;4986548;28;20378;-86
2022/05/31 11:03:21;;;;;;;4.55;1.23;;;21.50;62.20;;;;;;5006800;28;20018;-87
2022/05/31 11:06:02;;;;;;;3.80;1.42;;;21.50;59.40;;;;;;5006227;28;20148;-87
2022/05/31 11:11:30;;;;;;;6.20;1.30;;;21.60;59.40;;;;;;5019834;28;20133;-91
2022/05/31 11:14:37;;;;;;;3.20;1.30;;;21.60;59.40;;;;;;4998626;28;20054;-93
2022/05/31 11:17:23;;;;;;;2.80;1.10;;;21.60;59.70;;;;;;5006603;28;20048;-93
2022/05/31 11:20:18;;;;;;;3.05;1.30;;;21.80;59.60;;;;;;5001995;28;20052;-95
2022/05/31 11:22:47;;;;;;;5.03;1.60;;;21.90;59.20;;;;;;4988745;28;20041;-93
2022/05/31 11:25:34;;;;;;;7.30;1.42;;;22.00;58.80;;;;;;5015986;28;20080;-92
2022/05/31 11:28:03;;;;;;;4.18;1.40;;;22.10;58.20;;;;;;4999008;28;20038;-86
2022/05/31 11:31:05;;;;;;;2.17;1.10;;;22.10;57.10;;;;;;5015172;28;20108;-85
2022/05/31 11:34:00;;;;;;;2.58;1.00;;;22.10;56.70;;;;;;5013056;28;20054;-87
2022/05/31 11:36:45;;;;;;;5.20;1.45;;;22.20;56.40;;;;;;5007561;28;20104;-88
2022/05/31 11:39:21;;;;;;;5.40;1.10;;;22.10;56.70;;;;;;5007830;28;20057;-87
2022/05/31 11:42:05;;;;;;;3.80;1.08;;;22.10;56.60;;;;;;5009390;28;20109;-90
2022/05/31 11:45:02;;;;;;;2.03;1.30;;;22.20;57.50;;;;;;5013824;28;20509;-87
2022/05/31 11:47:29;;;;;;;3.75;1.45;;;22.20;56.10;;;;;;5002446;23;20143;-91
2022/05/31 11:50:30;;;;;;;2.70;1.40;;;22.20;55.70;;;;;;4995563;28;20031;-93
2022/05/31 11:53:13;;;;;;;2.42;0.93;;;22.20;56.00;;;;;;4997466;28;20498;-93
2022/05/31 11:55:49;;;;;;;2.33;0.93;;;22.40;56.30;;;;;;5014078;28;20061;-92
2022/05/31 11:58:36;;;;;;;3.33;1.10;;;22.50;54.50;;;;;;5010472;28;20053;-92
2022/05/31 12:01:23;;;;;;;4.28;1.10;;;22.70;53.90;;;;;;4994012;28;20022;-90
2022/05/31 12:04:01;;;;;;;4.53;1.33;;;22.90;52.50;;;;;;4993570;28;20018;-93
2022/05/31 12:06:50;;;;;;;4.28;1.08;;;23.10;51.90;;;;;;4991883;28;20022;-91
2022/05/31 12:09:30;;;;;;;2.10;0.80;;;23.30;51.90;;;;;;4992286;28;20033;-87
2022/05/31 12:12:17;;;;;;;3.38;1.30;;;23.40;50.60;;;;;;4995147;28;20037;-90
2022/05/31 12:14:52;;;;;;;1.73;0.90;;;23.50;50.00;;;;;;4985273;28;20031;-89
2022/05/31 12:17:22;;;;;;;2.50;1.10;;;23.60;50.00;;;;;;5002585;28;20034;-86
2022/05/31 12:20:29;;;;;;;4.10;1.08;;;23.60;50.50;;;;;;4989633;28;20144;-86
2022/05/31 12:23:40;;;;;;;3.80;1.05;;;23.70;50.10;;;;;;4921370;29;20036;-84
2022/05/31 12:26:38;;;;;;;2.45;0.90;;;23.80;51.10;;;;;;4983135;28;20073;-86
2022/05/31 12:29:11;;;;;;;4.10;1.50;;;24.00;50.50;;;;;;4984956;28;20049;-78
2022/05/31 12:31:41;;;;;;;3.03;1.05;;;24.10;50.10;;;;;;4986205;28;20026;-82
2022/05/31 12:34:21;;;;;;;2.85;1.00;;;24.20;49.80;;;;;;4979557;28;20092;-80
2022/05/31 12:37:02;;;;;;;2.50;1.30;;;24.30;49.30;;;;;;4988737;28;20119;-80
2022/05/31 12:39:30;;;;;;;2.22;1.10;;;24.30;49.10;;;;;;4983764;28;20100;-79
2022/05/31 12:41:58;;;;;;;2.35;1.10;;;24.20;49.50;;;;;;4982026;28;20031;-79
2022/05/31 12:44:33;;;;;;;2.28;1.05;;;24.10;49.10;;;;;;4983656;28;20108;-79
2022/05/31 12:47:28;;;;;;;4.10;1.00;;;24.20;48.30;;;;;;4985017;28;20109;-79
2022/05/31 12:50:04;;;;;;;5.85;1.45;;;24.20;47.90;;;;;;4985921;28;20041;-79
2022/05/31 12:55:33;;;;;;;2.38;1.30;;;24.20;48.20;;;;;;4996029;28;20060;-80
2022/05/31 13:00:52;;;;;;;4.10;0.93;;;24.30;47.90;;;;;;4988820;28;20180;-81
2022/05/31 13:03:33;;;;;;;2.13;0.95;;;24.20;46.50;;;;;;4981821;28;20054;-80
2022/05/31 13:06:02;;;;;;;3.40;1.13;;;24.20;47.00;;;;;;4983692;28;20026;-82
2022/05/31 13:08:44;;;;;;;2.28;1.00;;;24.20;47.50;;;;;;4997950;28;20423;-82
2022/05/31 13:20:46;;;;;;;4.43;1.00;;;24.10;48.40;;;;;;4984907;28;20041;-81
2022/05/31 13:23:20;;;;;;;10.43;1.10;;;24.10;47.60;;;;;;4984986;28;20394;-80
2022/05/31 13:25:50;;;;;;;3.20;0.98;;;24.00;47.60;;;;;;4980410;28;20851;-79
2022/05/31 13:28:32;;;;;;;1.60;0.85;;;23.80;46.70;;;;;;4986842;28;20415;-79
2022/05/31 13:31:19;;;;;;;4.60;1.30;;;23.90;46.80;;;;;;4985110;28;20550;-79
2022/05/31 13:33:54;;;;;;;2.80;1.00;;;23.80;46.70;;;;;;4977371;28;20495;-80
2022/05/31 13:36:24;;;;;;;2.97;0.93;;;23.70;46.80;;;;;;4985891;28;20037;-81
2022/05/31 13:38:58;;;;;;;3.28;1.25;;;23.70;48.30;;;;;;4991203;28;20129;-81
2022/05/31 13:41:25;;;;;;;2.15;1.20;;;23.70;47.90;;;;;;5004373;28;20578;-82
2022/05/31 13:43:57;;;;;;;3.17;1.30;;;23.70;48.10;;;;;;4992103;28;20030;-83
2022/05/31 13:46:36;;;;;;;2.00;1.10;;;23.60;48.00;;;;;;4985156;28;20046;-80
2022/05/31 13:49:11;;;;;;;2.25;1.27;;;23.60;47.90;;;;;;4983856;28;20113;-78
2022/05/31 13:51:36;;;;;;;2.08;1.00;;;23.40;47.60;;;;;;4979846;28;20502;-79
2022/05/31 13:54:13;;;;;;;2.53;1.20;;;23.40;47.40;;;;;;4987780;28;20057;-81
2022/05/31 13:56:39;;;;;;;2.20;1.15;;;23.40;47.70;;;;;;4983981;28;20498;-80
2022/05/31 13:59:05;;;;;;;1.40;1.00;;;23.30;48.10;;;;;;4983163;28;20090;-80
2022/05/31 14:01:39;;;;;;;1.70;1.00;;;23.20;48.30;;;;;;4983289;28;20399;-80
2022/05/31 14:04:18;;;;;;;3.25;1.35;;;23.10;47.70;;;;;;4983985;28;20034;-82
2022/05/31 14:06:45;;;;;;;4.15;1.17;;;23.10;48.70;;;;;;4982773;28;20038;-82
2022/05/31 14:09:15;;;;;;;5.50;1.27;;;23.00;48.30;;;;;;4985888;28;20496;-80
2022/05/31 14:11:53;;;;;;;2.38;0.90;;;23.00;48.90;;;;;;4984540;28;20035;-81
2022/05/31 14:14:34;;;;;;;2.85;1.10;;;23.00;48.80;;;;;;4986318;28;20033;-82
2022/05/31 14:17:02;;;;;;;6.65;1.25;;;23.10;49.10;;;;;;4981680;28;20517;-82